sensor_id;sensor_type;location;lat;lon;timestamp;temperature;humidity
35240;DHT22;21376;50.954;4.716;2023-02-01T00:02:02;7.00;99.90
35240;DHT22;21376;50.954;4.716;2023-02-01T00:07:01;7.00;99.90
35240;DHT22;21376;50.954;4.716;2023-02-01T00:09:30;7.20;99.90
35240;DHT22;21376;50.954;4.716;2023-02-01T00:11:58;6.90;99.90
35240;DHT22;21376;50.954;4.716;2023-02-01T00:14:33;7.00;99.90
35240;DHT22;21376;50.954;4.716;2023-02-01T00:17:09;6.90;99.90
35240;DHT22;21376;50.954;4.716;2023-02-01T00:19:39;7.00;99.90
35240;DHT22;21376;50.954;4.716;2023-02-01T00:22:06;7.00;99.90
35240;DHT22;21376;50.954;4.716;2023-02-01T00:24:35;7.10;99.90
35240;DHT22;21376;50.954;4.716;2023-02-01T00:27:04;7.10;99.90
35240;DHT22;21376;50.954;4.716;2023-02-01T00:29:32;7.10;99.90
35240;DHT22;21376;50.954;4.716;2023-02-01T00:31:57;7.40;99.90
35240;DHT22;21376;50.954;4.716;2023-02-01T00:34:23;7.40;99.90
35240;DHT22;21376;50.954;4.716;2023-02-01T00:36:50;7.40;99.90
35240;DHT22;21376;50.954;4.716;2023-02-01T00:39:16;7.20;99.90
35240;DHT22;21376;50.954;4.716;2023-02-01T00:41:45;7.10;99.90
35240;DHT22;21376;50.954;4.716;2023-02-01T00:44:21;7.30;99.90
35240;DHT22;21376;50.954;4.716;2023-02-01T00:46:50;7.20;99.90
35240;DHT22;21376;50.954;4.716;2023-02-01T00:49:19;7.20;99.90
35240;DHT22;21376;50.954;4.716;2023-02-01T00:51:47;7.30;99.90
35240;DHT22;21376;50.954;4.716;2023-02-01T00:54:16;7.40;99.90
35240;DHT22;21376;50.954;4.716;2023-02-01T00:56:50;7.50;99.90
35240;DHT22;21376;50.954;4.716;2023-02-01T00:59:16;7.40;99.90
35240;DHT22;21376;50.954;4.716;2023-02-01T01:01:42;7.20;99.90
35240;DHT22;21376;50.954;4.716;2023-02-01T01:04:07;7.30;99.90
35240;DHT22;21376;50.954;4.716;2023-02-01T01:06:34;7.10;99.90
35240;DHT22;21376;50.954;4.716;2023-02-01T01:09:08;7.10;99.90
35240;DHT22;21376;50.954;4.716;2023-02-01T01:11:36;7.20;99.90
35240;DHT22;21376;50.954;4.716;2023-02-01T01:14:03;7.10;99.90
35240;DHT22;21376;50.954;4.716;2023-02-01T01:16:33;7.00;99.90
35240;DHT22;21376;50.954;4.716;2023-02-01T01:19:02;7.10;99.90
35240;DHT22;21376;50.954;4.716;2023-02-01T01:21:35;7.10;99.90
35240;DHT22;21376;50.954;4.716;2023-02-01T01:24:03;7.20;99.90
35240;DHT22;21376;50.954;4.716;2023-02-01T01:26:32;7.30;99.90
35240;DHT22;21376;50.954;4.716;2023-02-01T01:29:09;7.20;99.90
35240;DHT22;21376;50.954;4.716;2023-02-01T01:31:38;7.50;99.90
35240;DHT22;21376;50.954;4.716;2023-02-01T01:34:05;7.30;99.90
35240;DHT22;21376;50.954;4.716;2023-02-01T01:36:40;7.20;99.90
35240;DHT22;21376;50.954;4.716;2023-02-01T01:39:08;7.10;99.90
35240;DHT22;21376;50.954;4.716;2023-02-01T01:41:39;7.20;99.90
35240;DHT22;21376;50.954;4.716;2023-02-01T01:47:11;7.20;99.90
35240;DHT22;21376;50.954;4.716;2023-02-01T01:49:40;7.20;99.90
35240;DHT22;21376;50.954;4.716;2023-02-01T01:52:09;7.20;99.90
35240;DHT22;21376;50.954;4.716;2023-02-01T01:54:41;7.10;99.90
35240;DHT22;21376;50.954;4.716;2023-02-01T01:57:18;7.10;99.90
35240;DHT22;21376;50.954;4.716;2023-02-01T01:59:57;7.40;99.90
35240;DHT22;21376;50.954;4.716;2023-02-01T02:02:29;7.10;99.90
35240;DHT22;21376;50.954;4.716;2023-02-01T02:05:01;7.10;99.90
35240;DHT22;21376;50.954;4.716;2023-02-01T02:07:34;7.10;99.90
35240;DHT22;21376;50.954;4.716;2023-02-01T02:10:07;7.10;99.90
35240;DHT22;21376;50.954;4.716;2023-02-01T02:12:44;7.10;99.90
35240;DHT22;21376;50.954;4.716;2023-02-01T02:15:16;7.00;99.90
35240;DHT22;21376;50.954;4.716;2023-02-01T02:21:30;7.10;99.90
35240;DHT22;21376;50.954;4.716;2023-02-01T02:24:09;6.80;99.90
35240;DHT22;21376;50.954;4.716;2023-02-01T02:33:35;6.40;99.90
35240;DHT22;21376;50.954;4.716;2023-02-01T02:39:08;6.20;99.90
35240;DHT22;21376;50.954;4.716;2023-02-01T02:48:25;6.00;99.90
35240;DHT22;21376;50.954;4.716;2023-02-01T02:53:52;5.90;99.90
35240;DHT22;21376;50.954;4.716;2023-02-01T02:56:47;6.00;99.90
35240;DHT22;21376;50.954;4.716;2023-02-01T02:59:36;6.00;99.90
35240;DHT22;21376;50.954;4.716;2023-02-01T03:02:26;5.90;99.90
35240;DHT22;21376;50.954;4.716;2023-02-01T03:05:14;5.90;99.90
35240;DHT22;21376;50.954;4.716;2023-02-01T03:22:08;5.70;99.90
35240;DHT22;21376;50.954;4.716;2023-02-01T03:24:44;5.70;99.90
35240;DHT22;21376;50.954;4.716;2023-02-01T03:27:32;5.80;99.90
35240;DHT22;21376;50.954;4.716;2023-02-01T03:32:38;5.80;99.90
35240;DHT22;21376;50.954;4.716;2023-02-01T03:41:28;5.90;99.90
35240;DHT22;21376;50.954;4.716;2023-02-01T03:47:02;5.90;99.90
35240;DHT22;21376;50.954;4.716;2023-02-01T03:49:30;5.90;99.90
35240;DHT22;21376;50.954;4.716;2023-02-01T03:52:06;5.90;99.90
35240;DHT22;21376;50.954;4.716;2023-02-01T03:54:42;5.90;99.90
35240;DHT22;21376;50.954;4.716;2023-02-01T03:57:26;5.90;99.90
35240;DHT22;21376;50.954;4.716;2023-02-01T04:00:20;5.90;99.90
35240;DHT22;21376;50.954;4.716;2023-02-01T04:02:57;5.70;99.90
35240;DHT22;21376;50.954;4.716;2023-02-01T04:05:26;5.90;99.90
35240;DHT22;21376;50.954;4.716;2023-02-01T04:07:56;5.70;99.90
35240;DHT22;21376;50.954;4.716;2023-02-01T04:10:32;5.60;99.90
35240;DHT22;21376;50.954;4.716;2023-02-01T04:13:06;5.60;99.90
35240;DHT22;21376;50.954;4.716;2023-02-01T04:15:32;5.60;99.90
35240;DHT22;21376;50.954;4.716;2023-02-01T04:18:03;5.50;99.90
35240;DHT22;21376;50.954;4.716;2023-02-01T04:20:32;5.50;99.90
35240;DHT22;21376;50.954;4.716;2023-02-01T04:22:59;5.60;99.90
35240;DHT22;21376;50.954;4.716;2023-02-01T04:25:29;5.80;99.90
35240;DHT22;21376;50.954;4.716;2023-02-01T04:27:58;5.60;99.90
35240;DHT22;21376;50.954;4.716;2023-02-01T04:30:24;5.60;99.90
35240;DHT22;21376;50.954;4.716;2023-02-01T04:32:56;5.50;99.90
35240;DHT22;21376;50.954;4.716;2023-02-01T04:35:21;5.50;99.90
35240;DHT22;21376;50.954;4.716;2023-02-01T04:37:50;5.50;99.90
35240;DHT22;21376;50.954;4.716;2023-02-01T04:40:19;5.50;99.90
35240;DHT22;21376;50.954;4.716;2023-02-01T04:42:47;5.60;99.90
35240;DHT22;21376;50.954;4.716;2023-02-01T04:45:14;5.50;99.90
35240;DHT22;21376;50.954;4.716;2023-02-01T04:47:43;5.30;99.90
35240;DHT22;21376;50.954;4.716;2023-02-01T04:50:15;5.40;99.90
35240;DHT22;21376;50.954;4.716;2023-02-01T04:52:44;5.40;99.90
35240;DHT22;21376;50.954;4.716;2023-02-01T04:55:36;5.30;99.90
35240;DHT22;21376;50.954;4.716;2023-02-01T04:58:03;5.30;99.90
35240;DHT22;21376;50.954;4.716;2023-02-01T05:00:37;5.30;99.90
35240;DHT22;21376;50.954;4.716;2023-02-01T05:03:24;5.30;99.90
35240;DHT22;21376;50.954;4.716;2023-02-01T05:05:53;5.30;99.90
35240;DHT22;21376;50.954;4.716;2023-02-01T05:08:38;5.30;99.90
35240;DHT22;21376;50.954;4.716;2023-02-01T05:11:08;5.30;99.90
35240;DHT22;21376;50.954;4.716;2023-02-01T05:13:58;5.30;99.90
35240;DHT22;21376;50.954;4.716;2023-02-01T05:16:26;5.30;99.90
35240;DHT22;21376;50.954;4.716;2023-02-01T05:18:55;5.40;99.90
35240;DHT22;21376;50.954;4.716;2023-02-01T05:21:21;5.40;99.90
35240;DHT22;21376;50.954;4.716;2023-02-01T05:23:50;5.20;99.90
35240;DHT22;21376;50.954;4.716;2023-02-01T05:26:38;5.20;99.90
35240;DHT22;21376;50.954;4.716;2023-02-01T05:29:05;5.10;99.90
35240;DHT22;21376;50.954;4.716;2023-02-01T05:31:38;5.20;99.90
35240;DHT22;21376;50.954;4.716;2023-02-01T05:34:08;5.10;99.90
35240;DHT22;21376;50.954;4.716;2023-02-01T05:36:39;5.20;99.90
35240;DHT22;21376;50.954;4.716;2023-02-01T05:39:07;5.00;99.90
35240;DHT22;21376;50.954;4.716;2023-02-01T05:41:36;4.90;99.90
35240;DHT22;21376;50.954;4.716;2023-02-01T05:44:03;5.10;99.90
35240;DHT22;21376;50.954;4.716;2023-02-01T05:46:33;5.00;99.90
35240;DHT22;21376;50.954;4.716;2023-02-01T05:49:02;5.00;99.90
35240;DHT22;21376;50.954;4.716;2023-02-01T05:51:29;5.20;99.90
35240;DHT22;21376;50.954;4.716;2023-02-01T05:54:02;5.00;99.90
35240;DHT22;21376;50.954;4.716;2023-02-01T05:56:31;5.00;99.90
35240;DHT22;21376;50.954;4.716;2023-02-01T05:58:59;4.90;99.90
35240;DHT22;21376;50.954;4.716;2023-02-01T06:01:28;4.90;99.90
35240;DHT22;21376;50.954;4.716;2023-02-01T06:04:00;5.10;99.90
35240;DHT22;21376;50.954;4.716;2023-02-01T06:06:25;4.90;99.90
35240;DHT22;21376;50.954;4.716;2023-02-01T06:09:00;5.00;99.90
35240;DHT22;21376;50.954;4.716;2023-02-01T06:11:29;4.80;99.90
35240;DHT22;21376;50.954;4.716;2023-02-01T06:13:57;4.80;99.90
35240;DHT22;21376;50.954;4.716;2023-02-01T06:16:23;4.80;99.90
35240;DHT22;21376;50.954;4.716;2023-02-01T06:18:49;4.70;99.90
35240;DHT22;21376;50.954;4.716;2023-02-01T06:21:17;4.80;99.90
35240;DHT22;21376;50.954;4.716;2023-02-01T06:23:54;4.90;99.90
35240;DHT22;21376;50.954;4.716;2023-02-01T06:26:21;4.90;99.90
35240;DHT22;21376;50.954;4.716;2023-02-01T06:28:46;4.80;99.90
35240;DHT22;21376;50.954;4.716;2023-02-01T06:31:15;4.90;99.90
35240;DHT22;21376;50.954;4.716;2023-02-01T06:33:42;4.80;99.90
35240;DHT22;21376;50.954;4.716;2023-02-01T06:36:22;4.80;99.90
35240;DHT22;21376;50.954;4.716;2023-02-01T06:38:49;4.90;99.90
35240;DHT22;21376;50.954;4.716;2023-02-01T06:41:18;5.10;99.90
35240;DHT22;21376;50.954;4.716;2023-02-01T06:43:46;4.60;99.90
35240;DHT22;21376;50.954;4.716;2023-02-01T06:46:14;4.80;99.90
35240;DHT22;21376;50.954;4.716;2023-02-01T06:48:40;5.00;99.90
35240;DHT22;21376;50.954;4.716;2023-02-01T06:51:15;4.80;99.90
35240;DHT22;21376;50.954;4.716;2023-02-01T06:53:45;4.80;99.90
35240;DHT22;21376;50.954;4.716;2023-02-01T06:56:11;4.70;99.90
35240;DHT22;21376;50.954;4.716;2023-02-01T06:58:44;4.70;99.90
35240;DHT22;21376;50.954;4.716;2023-02-01T07:01:11;4.70;99.90
35240;DHT22;21376;50.954;4.716;2023-02-01T07:03:39;4.70;99.90
35240;DHT22;21376;50.954;4.716;2023-02-01T07:06:08;4.90;99.90
35240;DHT22;21376;50.954;4.716;2023-02-01T07:08:36;4.70;99.90
35240;DHT22;21376;50.954;4.716;2023-02-01T07:11:13;4.70;99.90
35240;DHT22;21376;50.954;4.716;2023-02-01T07:13:43;4.70;99.90
35240;DHT22;21376;50.954;4.716;2023-02-01T07:16:15;4.80;99.90
35240;DHT22;21376;50.954;4.716;2023-02-01T07:18:53;4.80;99.90
35240;DHT22;21376;50.954;4.716;2023-02-01T07:21:22;4.80;99.90
35240;DHT22;21376;50.954;4.716;2023-02-01T07:23:50;4.90;99.90
35240;DHT22;21376;50.954;4.716;2023-02-01T07:26:16;5.00;99.90
35240;DHT22;21376;50.954;4.716;2023-02-01T07:28:42;4.80;99.90
35240;DHT22;21376;50.954;4.716;2023-02-01T07:31:11;4.80;99.90
35240;DHT22;21376;50.954;4.716;2023-02-01T07:33:37;5.00;99.90
35240;DHT22;21376;50.954;4.716;2023-02-01T07:36:06;4.90;99.90
35240;DHT22;21376;50.954;4.716;2023-02-01T07:38:36;4.90;99.90
35240;DHT22;21376;50.954;4.716;2023-02-01T07:41:12;4.90;99.90
35240;DHT22;21376;50.954;4.716;2023-02-01T07:43:39;5.10;99.90
35240;DHT22;21376;50.954;4.716;2023-02-01T07:46:05;5.10;99.90
35240;DHT22;21376;50.954;4.716;2023-02-01T07:48:35;5.20;99.90
35240;DHT22;21376;50.954;4.716;2023-02-01T07:51:12;5.20;99.90
35240;DHT22;21376;50.954;4.716;2023-02-01T07:53:41;5.20;99.90
35240;DHT22;21376;50.954;4.716;2023-02-01T07:56:16;5.20;99.90
35240;DHT22;21376;50.954;4.716;2023-02-01T07:58:47;5.40;99.90
35240;DHT22;21376;50.954;4.716;2023-02-01T08:01:21;5.60;99.90
35240;DHT22;21376;50.954;4.716;2023-02-01T08:04:03;5.50;99.90
35240;DHT22;21376;50.954;4.716;2023-02-01T08:06:33;5.60;99.90
35240;DHT22;21376;50.954;4.716;2023-02-01T08:09:05;5.80;99.90
35240;DHT22;21376;50.954;4.716;2023-02-01T08:11:32;5.90;99.90
35240;DHT22;21376;50.954;4.716;2023-02-01T08:14:02;6.10;99.90
35240;DHT22;21376;50.954;4.716;2023-02-01T08:16:31;6.20;99.90
35240;DHT22;21376;50.954;4.716;2023-02-01T08:19:02;6.30;99.90
35240;DHT22;21376;50.954;4.716;2023-02-01T08:21:33;6.30;99.90
35240;DHT22;21376;50.954;4.716;2023-02-01T08:24:11;6.30;99.90
35240;DHT22;21376;50.954;4.716;2023-02-01T08:26:53;6.50;99.90
35240;DHT22;21376;50.954;4.716;2023-02-01T08:29:38;6.30;99.90
35240;DHT22;21376;50.954;4.716;2023-02-01T08:32:05;6.20;99.90
35240;DHT22;21376;50.954;4.716;2023-02-01T08:34:31;6.30;99.90
35240;DHT22;21376;50.954;4.716;2023-02-01T08:37:00;6.30;99.90
35240;DHT22;21376;50.954;4.716;2023-02-01T08:39:29;6.40;99.90
35240;DHT22;21376;50.954;4.716;2023-02-01T08:41:58;6.40;99.90
35240;DHT22;21376;50.954;4.716;2023-02-01T08:44:45;6.50;99.90
35240;DHT22;21376;50.954;4.716;2023-02-01T08:47:24;6.40;99.90
35240;DHT22;21376;50.954;4.716;2023-02-01T08:49:52;6.50;99.90
35240;DHT22;21376;50.954;4.716;2023-02-01T08:52:21;6.80;99.90
35240;DHT22;21376;50.954;4.716;2023-02-01T08:55:04;6.60;99.90
35240;DHT22;21376;50.954;4.716;2023-02-01T08:57:34;6.50;99.90
35240;DHT22;21376;50.954;4.716;2023-02-01T09:00:04;6.90;99.90
35240;DHT22;21376;50.954;4.716;2023-02-01T09:02:56;7.20;99.90
35240;DHT22;21376;50.954;4.716;2023-02-01T09:05:24;7.20;99.90
35240;DHT22;21376;50.954;4.716;2023-02-01T09:07:52;7.60;99.90
35240;DHT22;21376;50.954;4.716;2023-02-01T09:10:21;7.30;99.90
35240;DHT22;21376;50.954;4.716;2023-02-01T09:12:49;7.40;99.90
35240;DHT22;21376;50.954;4.716;2023-02-01T09:15:18;7.50;99.90
35240;DHT22;21376;50.954;4.716;2023-02-01T09:17:47;7.50;99.90
35240;DHT22;21376;50.954;4.716;2023-02-01T09:20:15;8.20;99.90
35240;DHT22;21376;50.954;4.716;2023-02-01T09:22:48;8.70;99.90
35240;DHT22;21376;50.954;4.716;2023-02-01T09:25:17;9.20;99.90
35240;DHT22;21376;50.954;4.716;2023-02-01T09:28:06;9.50;99.90
35240;DHT22;21376;50.954;4.716;2023-02-01T09:30:43;9.70;99.90
35240;DHT22;21376;50.954;4.716;2023-02-01T09:33:12;10.00;99.90
35240;DHT22;21376;50.954;4.716;2023-02-01T09:35:37;10.10;99.90
35240;DHT22;21376;50.954;4.716;2023-02-01T09:38:06;10.10;99.90
35240;DHT22;21376;50.954;4.716;2023-02-01T09:40:35;10.20;99.90
35240;DHT22;21376;50.954;4.716;2023-02-01T09:43:33;10.20;99.90
35240;DHT22;21376;50.954;4.716;2023-02-01T09:49:22;10.70;99.90
35240;DHT22;21376;50.954;4.716;2023-02-01T09:51:51;10.60;99.90
35240;DHT22;21376;50.954;4.716;2023-02-01T09:54:29;10.40;99.90
35240;DHT22;21376;50.954;4.716;2023-02-01T09:57:16;10.60;99.90
35240;DHT22;21376;50.954;4.716;2023-02-01T09:59:46;10.10;99.90
35240;DHT22;21376;50.954;4.716;2023-02-01T10:02:21;10.10;99.90
35240;DHT22;21376;50.954;4.716;2023-02-01T10:04:49;10.30;99.90
35240;DHT22;21376;50.954;4.716;2023-02-01T10:14:32;10.90;99.90
35240;DHT22;21376;50.954;4.716;2023-02-01T10:20:15;11.00;99.90
35240;DHT22;21376;50.954;4.716;2023-02-01T10:26:23;11.10;99.90
35240;DHT22;21376;50.954;4.716;2023-02-01T10:28:58;11.10;99.90
35240;DHT22;21376;50.954;4.716;2023-02-01T10:31:51;11.10;99.90
35240;DHT22;21376;50.954;4.716;2023-02-01T10:34:28;11.50;99.90
35240;DHT22;21376;50.954;4.716;2023-02-01T10:37:28;11.90;99.90
35240;DHT22;21376;50.954;4.716;2023-02-01T10:39:57;11.50;99.90
35240;DHT22;21376;50.954;4.716;2023-02-01T10:42:31;11.20;99.90
35240;DHT22;21376;50.954;4.716;2023-02-01T10:45:02;11.30;99.90
35240;DHT22;21376;50.954;4.716;2023-02-01T10:47:34;11.50;99.90
35240;DHT22;21376;50.954;4.716;2023-02-01T10:50:22;11.90;99.90
35240;DHT22;21376;50.954;4.716;2023-02-01T10:52:57;11.80;99.90
35240;DHT22;21376;50.954;4.716;2023-02-01T10:58:06;12.00;99.90
35240;DHT22;21376;50.954;4.716;2023-02-01T11:01:07;12.30;99.90
35240;DHT22;21376;50.954;4.716;2023-02-01T11:04:01;12.60;99.90
35240;DHT22;21376;50.954;4.716;2023-02-01T11:06:33;13.20;99.90
35240;DHT22;21376;50.954;4.716;2023-02-01T11:14:37;13.60;99.90
35240;DHT22;21376;50.954;4.716;2023-02-01T11:17:35;13.20;99.90
35240;DHT22;21376;50.954;4.716;2023-02-01T11:20:08;12.50;99.90
35240;DHT22;21376;50.954;4.716;2023-02-01T11:22:38;12.10;99.90
35240;DHT22;21376;50.954;4.716;2023-02-01T11:25:14;12.00;99.90
35240;DHT22;21376;50.954;4.716;2023-02-01T11:27:41;11.90;99.90
35240;DHT22;21376;50.954;4.716;2023-02-01T11:30:16;11.90;99.90
35240;DHT22;21376;50.954;4.716;2023-02-01T11:32:47;11.60;99.90
35240;DHT22;21376;50.954;4.716;2023-02-01T11:35:19;11.70;99.90
35240;DHT22;21376;50.954;4.716;2023-02-01T11:37:58;11.30;99.90
35240;DHT22;21376;50.954;4.716;2023-02-01T11:40:46;11.50;99.90
35240;DHT22;21376;50.954;4.716;2023-02-01T11:43:28;11.10;99.90
35240;DHT22;21376;50.954;4.716;2023-02-01T11:46:02;10.90;99.90
35240;DHT22;21376;50.954;4.716;2023-02-01T11:48:33;11.10;99.90
35240;DHT22;21376;50.954;4.716;2023-02-01T11:51:25;11.20;99.90
35240;DHT22;21376;50.954;4.716;2023-02-01T11:57:17;11.50;99.90
35240;DHT22;21376;50.954;4.716;2023-02-01T12:08:34;11.40;99.90
35240;DHT22;21376;50.954;4.716;2023-02-01T12:14:01;11.40;99.90
35240;DHT22;21376;50.954;4.716;2023-02-01T12:19:49;11.50;99.90
35240;DHT22;21376;50.954;4.716;2023-02-01T12:37:23;10.30;99.90
35240;DHT22;21376;50.954;4.716;2023-02-01T12:43:05;10.40;99.90
35240;DHT22;21376;50.954;4.716;2023-02-01T12:45:38;10.50;99.90
35240;DHT22;21376;50.954;4.716;2023-02-01T12:48:24;10.40;99.90
35240;DHT22;21376;50.954;4.716;2023-02-01T12:50:57;10.40;99.90
35240;DHT22;21376;50.954;4.716;2023-02-01T12:53:54;10.20;99.90
35240;DHT22;21376;50.954;4.716;2023-02-01T12:56:29;10.10;99.90
35240;DHT22;21376;50.954;4.716;2023-02-01T12:59:02;10.00;99.90
35240;DHT22;21376;50.954;4.716;2023-02-01T13:01:40;10.00;99.90
35240;DHT22;21376;50.954;4.716;2023-02-01T13:06:47;10.10;99.90
35240;DHT22;21376;50.954;4.716;2023-02-01T13:11:49;10.30;99.90
35240;DHT22;21376;50.954;4.716;2023-02-01T13:14:38;10.40;99.90
35240;DHT22;21376;50.954;4.716;2023-02-01T13:19:48;10.30;99.90
35240;DHT22;21376;50.954;4.716;2023-02-01T13:22:40;10.50;99.90
35240;DHT22;21376;50.954;4.716;2023-02-01T13:27:57;10.50;99.90
35240;DHT22;21376;50.954;4.716;2023-02-01T13:30:45;10.40;99.90
35240;DHT22;21376;50.954;4.716;2023-02-01T13:36:38;10.20;99.90
35240;DHT22;21376;50.954;4.716;2023-02-01T13:39:36;10.30;99.90
35240;DHT22;21376;50.954;4.716;2023-02-01T13:42:30;10.30;99.90
35240;DHT22;21376;50.954;4.716;2023-02-01T13:45:13;10.30;99.90
35240;DHT22;21376;50.954;4.716;2023-02-01T13:47:44;10.20;99.90
35240;DHT22;21376;50.954;4.716;2023-02-01T13:50:28;10.10;99.90
35240;DHT22;21376;50.954;4.716;2023-02-01T13:55:32;10.00;99.90
35240;DHT22;21376;50.954;4.716;2023-02-01T14:00:49;10.10;99.90
35240;DHT22;21376;50.954;4.716;2023-02-01T14:03:21;10.20;99.90
35240;DHT22;21376;50.954;4.716;2023-02-01T14:08:36;10.00;99.90
35240;DHT22;21376;50.954;4.716;2023-02-01T14:11:02;10.00;99.90
35240;DHT22;21376;50.954;4.716;2023-02-01T14:13:39;10.10;99.90
35240;DHT22;21376;50.954;4.716;2023-02-01T14:26:48;10.00;99.90
35240;DHT22;21376;50.954;4.716;2023-02-01T14:29:35;9.80;99.90
35240;DHT22;21376;50.954;4.716;2023-02-01T14:32:21;9.80;99.90
35240;DHT22;21376;50.954;4.716;2023-02-01T14:42:49;9.70;99.90
35240;DHT22;21376;50.954;4.716;2023-02-01T14:50:53;9.60;99.90
35240;DHT22;21376;50.954;4.716;2023-02-01T14:53:30;9.70;99.90
35240;DHT22;21376;50.954;4.716;2023-02-01T15:01:29;9.70;99.90
35240;DHT22;21376;50.954;4.716;2023-02-01T15:04:17;9.70;99.90
35240;DHT22;21376;50.954;4.716;2023-02-01T15:07:20;9.70;99.90
35240;DHT22;21376;50.954;4.716;2023-02-01T15:09:54;9.50;99.90
35240;DHT22;21376;50.954;4.716;2023-02-01T15:12:27;9.60;99.90
35240;DHT22;21376;50.954;4.716;2023-02-01T15:17:41;9.40;99.90
35240;DHT22;21376;50.954;4.716;2023-02-01T15:20:20;9.40;99.90
35240;DHT22;21376;50.954;4.716;2023-02-01T15:23:14;9.40;99.90
35240;DHT22;21376;50.954;4.716;2023-02-01T15:25:46;9.40;99.90
35240;DHT22;21376;50.954;4.716;2023-02-01T15:28:18;9.30;99.90
35240;DHT22;21376;50.954;4.716;2023-02-01T15:31:04;9.40;99.90
35240;DHT22;21376;50.954;4.716;2023-02-01T15:33:34;9.30;99.90
35240;DHT22;21376;50.954;4.716;2023-02-01T15:38:37;9.30;99.90
35240;DHT22;21376;50.954;4.716;2023-02-01T15:41:20;9.30;99.90
35240;DHT22;21376;50.954;4.716;2023-02-01T15:44:04;9.40;99.90
35240;DHT22;21376;50.954;4.716;2023-02-01T15:46:42;9.30;99.90
35240;DHT22;21376;50.954;4.716;2023-02-01T15:49:31;9.20;99.90
35240;DHT22;21376;50.954;4.716;2023-02-01T15:52:16;9.20;99.90
35240;DHT22;21376;50.954;4.716;2023-02-01T15:54:48;9.20;99.90
35240;DHT22;21376;50.954;4.716;2023-02-01T15:57:34;9.40;99.90
35240;DHT22;21376;50.954;4.716;2023-02-01T16:00:05;9.20;99.90
35240;DHT22;21376;50.954;4.716;2023-02-01T16:02:35;9.20;99.90
35240;DHT22;21376;50.954;4.716;2023-02-01T16:05:21;9.20;99.90
35240;DHT22;21376;50.954;4.716;2023-02-01T16:08:21;9.20;99.90
35240;DHT22;21376;50.954;4.716;2023-02-01T16:10:49;9.20;99.90
35240;DHT22;21376;50.954;4.716;2023-02-01T16:13:17;9.20;99.90
35240;DHT22;21376;50.954;4.716;2023-02-01T16:15:44;9.20;99.90
35240;DHT22;21376;50.954;4.716;2023-02-01T16:18:12;9.20;99.90
35240;DHT22;21376;50.954;4.716;2023-02-01T16:20:40;9.20;99.90
35240;DHT22;21376;50.954;4.716;2023-02-01T16:23:12;9.10;99.90
35240;DHT22;21376;50.954;4.716;2023-02-01T16:25:41;9.20;99.90
35240;DHT22;21376;50.954;4.716;2023-02-01T16:28:06;9.30;99.90
35240;DHT22;21376;50.954;4.716;2023-02-01T16:30:33;9.20;99.90
35240;DHT22;21376;50.954;4.716;2023-02-01T16:33:02;9.10;99.90
35240;DHT22;21376;50.954;4.716;2023-02-01T16:35:35;9.10;99.90
35240;DHT22;21376;50.954;4.716;2023-02-01T16:38:14;9.10;99.90
35240;DHT22;21376;50.954;4.716;2023-02-01T16:40:44;9.10;99.90
35240;DHT22;21376;50.954;4.716;2023-02-01T16:43:25;9.00;99.90
35240;DHT22;21376;50.954;4.716;2023-02-01T16:45:53;9.00;99.90
35240;DHT22;21376;50.954;4.716;2023-02-01T16:48:33;9.10;99.90
35240;DHT22;21376;50.954;4.716;2023-02-01T16:51:03;9.10;99.90
35240;DHT22;21376;50.954;4.716;2023-02-01T16:53:35;9.00;99.90
35240;DHT22;21376;50.954;4.716;2023-02-01T16:56:27;9.10;99.90
35240;DHT22;21376;50.954;4.716;2023-02-01T16:58:55;9.00;99.90
35240;DHT22;21376;50.954;4.716;2023-02-01T17:01:22;9.20;99.90
35240;DHT22;21376;50.954;4.716;2023-02-01T17:03:52;9.20;99.90
35240;DHT22;21376;50.954;4.716;2023-02-01T17:06:26;9.00;99.90
35240;DHT22;21376;50.954;4.716;2023-02-01T17:08:55;8.90;99.90
35240;DHT22;21376;50.954;4.716;2023-02-01T17:11:21;8.90;99.90
35240;DHT22;21376;50.954;4.716;2023-02-01T17:13:50;9.00;99.90
35240;DHT22;21376;50.954;4.716;2023-02-01T17:16:27;8.80;99.90
35240;DHT22;21376;50.954;4.716;2023-02-01T17:19:01;9.00;99.90
35240;DHT22;21376;50.954;4.716;2023-02-01T17:21:27;8.80;99.90
35240;DHT22;21376;50.954;4.716;2023-02-01T17:23:57;9.00;99.90
35240;DHT22;21376;50.954;4.716;2023-02-01T17:26:30;8.90;99.90
35240;DHT22;21376;50.954;4.716;2023-02-01T17:29:33;9.20;99.90
35240;DHT22;21376;50.954;4.716;2023-02-01T17:32:22;9.10;99.90
35240;DHT22;21376;50.954;4.716;2023-02-01T17:34:48;9.00;99.90
35240;DHT22;21376;50.954;4.716;2023-02-01T17:37:29;8.90;99.90
35240;DHT22;21376;50.954;4.716;2023-02-01T17:39:58;9.00;99.90
35240;DHT22;21376;50.954;4.716;2023-02-01T17:42:28;9.00;99.90
35240;DHT22;21376;50.954;4.716;2023-02-01T17:44:59;8.90;99.90
35240;DHT22;21376;50.954;4.716;2023-02-01T17:47:25;8.80;99.90
35240;DHT22;21376;50.954;4.716;2023-02-01T17:49:51;8.90;99.90
35240;DHT22;21376;50.954;4.716;2023-02-01T17:52:24;9.10;99.90
35240;DHT22;21376;50.954;4.716;2023-02-01T17:54:53;8.80;99.90
35240;DHT22;21376;50.954;4.716;2023-02-01T17:57:19;8.80;99.90
35240;DHT22;21376;50.954;4.716;2023-02-01T17:59:45;8.80;99.90
35240;DHT22;21376;50.954;4.716;2023-02-01T18:02:20;8.80;99.90
35240;DHT22;21376;50.954;4.716;2023-02-01T18:04:50;8.90;99.90
35240;DHT22;21376;50.954;4.716;2023-02-01T18:07:24;8.90;99.90
35240;DHT22;21376;50.954;4.716;2023-02-01T18:09:49;8.80;99.90
35240;DHT22;21376;50.954;4.716;2023-02-01T18:12:27;8.80;99.90
35240;DHT22;21376;50.954;4.716;2023-02-01T18:14:53;8.80;99.90
35240;DHT22;21376;50.954;4.716;2023-02-01T18:17:22;8.70;99.90
35240;DHT22;21376;50.954;4.716;2023-02-01T18:19:51;8.70;99.90
35240;DHT22;21376;50.954;4.716;2023-02-01T18:22:21;8.60;99.90
35240;DHT22;21376;50.954;4.716;2023-02-01T18:24:56;8.40;99.90
35240;DHT22;21376;50.954;4.716;2023-02-01T18:27:22;8.40;99.90
35240;DHT22;21376;50.954;4.716;2023-02-01T18:29:54;8.40;99.90
35240;DHT22;21376;50.954;4.716;2023-02-01T18:32:20;8.30;99.90
35240;DHT22;21376;50.954;4.716;2023-02-01T18:34:46;8.30;99.90
35240;DHT22;21376;50.954;4.716;2023-02-01T18:37:15;8.50;99.90
35240;DHT22;21376;50.954;4.716;2023-02-01T18:39:44;8.30;99.90
35240;DHT22;21376;50.954;4.716;2023-02-01T18:42:16;8.30;99.90
35240;DHT22;21376;50.954;4.716;2023-02-01T18:44:42;8.30;99.90
35240;DHT22;21376;50.954;4.716;2023-02-01T18:47:08;8.30;99.90
35240;DHT22;21376;50.954;4.716;2023-02-01T18:49:34;8.30;99.90
35240;DHT22;21376;50.954;4.716;2023-02-01T18:52:03;8.30;99.90
35240;DHT22;21376;50.954;4.716;2023-02-01T18:54:31;8.30;99.90
35240;DHT22;21376;50.954;4.716;2023-02-01T18:57:00;8.30;99.90
35240;DHT22;21376;50.954;4.716;2023-02-01T18:59:28;8.30;99.90
35240;DHT22;21376;50.954;4.716;2023-02-01T19:01:57;8.30;99.90
35240;DHT22;21376;50.954;4.716;2023-02-01T19:04:24;8.40;99.90
35240;DHT22;21376;50.954;4.716;2023-02-01T19:06:52;8.40;99.90
35240;DHT22;21376;50.954;4.716;2023-02-01T19:09:20;8.40;99.90
35240;DHT22;21376;50.954;4.716;2023-02-01T19:11:46;8.50;99.90
35240;DHT22;21376;50.954;4.716;2023-02-01T19:14:15;8.50;99.90